sensor_id;sensor_type;location;lat;lon;timestamp;temperature;humidity
68719;DHT22;55696;52.138;5.444;2023-12-14T00:00:53;9.80;73.60
68719;DHT22;55696;52.138;5.444;2023-12-14T00:03:20;9.90;73.50
68719;DHT22;55696;52.138;5.444;2023-12-14T00:05:47;9.80;74.00
68719;DHT22;55696;52.138;5.444;2023-12-14T00:08:14;9.80;74.20
68719;DHT22;55696;52.138;5.444;2023-12-14T00:10:41;9.80;74.20
68719;DHT22;55696;52.138;5.444;2023-12-14T00:13:08;9.80;74.30
68719;DHT22;55696;52.138;5.444;2023-12-14T00:15:34;9.80;74.20
68719;DHT22;55696;52.138;5.444;2023-12-14T00:18:01;9.70;74.50
68719;DHT22;55696;52.138;5.444;2023-12-14T00:20:28;9.60;74.60
68719;DHT22;55696;52.138;5.444;2023-12-14T00:22:55;9.70;74.90
68719;DHT22;55696;52.138;5.444;2023-12-14T00:25:22;9.80;75.00
68719;DHT22;55696;52.138;5.444;2023-12-14T00:27:49;10.00;74.40
68719;DHT22;55696;52.138;5.444;2023-12-14T00:30:16;10.00;73.90
68719;DHT22;55696;52.138;5.444;2023-12-14T00:32:43;10.20;74.00
68719;DHT22;55696;52.138;5.444;2023-12-14T00:35:09;10.10;73.50
68719;DHT22;55696;52.138;5.444;2023-12-14T00:37:36;10.00;73.20
68719;DHT22;55696;52.138;5.444;2023-12-14T00:40:03;10.10;73.30
68719;DHT22;55696;52.138;5.444;2023-12-14T00:42:30;10.00;73.60
68719;DHT22;55696;52.138;5.444;2023-12-14T00:44:57;10.00;73.40
68719;DHT22;55696;52.138;5.444;2023-12-14T00:47:24;10.00;73.30
68719;DHT22;55696;52.138;5.444;2023-12-14T00:49:51;10.00;73.30
68719;DHT22;55696;52.138;5.444;2023-12-14T00:52:18;10.10;73.60
68719;DHT22;55696;52.138;5.444;2023-12-14T00:54:45;10.50;73.60
68719;DHT22;55696;52.138;5.444;2023-12-14T00:57:12;10.20;73.10
68719;DHT22;55696;52.138;5.444;2023-12-14T00:59:38;10.20;73.00
68719;DHT22;55696;52.138;5.444;2023-12-14T01:02:07;10.10;73.10
68719;DHT22;55696;52.138;5.444;2023-12-14T01:04:34;10.20;73.00
68719;DHT22;55696;52.138;5.444;2023-12-14T01:07:00;10.20;72.80
68719;DHT22;55696;52.138;5.444;2023-12-14T01:09:27;10.00;72.70
68719;DHT22;55696;52.138;5.444;2023-12-14T01:11:54;10.00;73.00
68719;DHT22;55696;52.138;5.444;2023-12-14T01:14:21;9.70;72.90
68719;DHT22;55696;52.138;5.444;2023-12-14T01:16:48;10.00;73.20
68719;DHT22;55696;52.138;5.444;2023-12-14T01:19:15;10.10;73.10
68719;DHT22;55696;52.138;5.444;2023-12-14T01:21:41;10.30;72.80
68719;DHT22;55696;52.138;5.444;2023-12-14T01:24:09;10.20;72.60
68719;DHT22;55696;52.138;5.444;2023-12-14T01:26:36;10.10;72.40
68719;DHT22;55696;52.138;5.444;2023-12-14T01:29:02;10.10;72.50
68719;DHT22;55696;52.138;5.444;2023-12-14T01:31:29;10.20;72.60
68719;DHT22;55696;52.138;5.444;2023-12-14T01:33:56;10.20;72.50
68719;DHT22;55696;52.138;5.444;2023-12-14T01:36:24;10.20;72.40
68719;DHT22;55696;52.138;5.444;2023-12-14T01:38:51;10.10;73.10
68719;DHT22;55696;52.138;5.444;2023-12-14T01:41:18;10.20;72.90
68719;DHT22;55696;52.138;5.444;2023-12-14T01:43:45;10.40;72.70
68719;DHT22;55696;52.138;5.444;2023-12-14T01:46:12;10.40;72.10
68719;DHT22;55696;52.138;5.444;2023-12-14T01:48:40;10.50;71.60
68719;DHT22;55696;52.138;5.444;2023-12-14T01:51:07;10.40;71.60
68719;DHT22;55696;52.138;5.444;2023-12-14T01:53:34;10.40;71.90
68719;DHT22;55696;52.138;5.444;2023-12-14T01:56:01;10.20;71.80
68719;DHT22;55696;52.138;5.444;2023-12-14T01:58:28;10.20;72.00
68719;DHT22;55696;52.138;5.444;2023-12-14T02:03:47;10.00;75.00
68719;DHT22;55696;52.138;5.444;2023-12-14T02:06:15;9.90;74.70
68719;DHT22;55696;52.138;5.444;2023-12-14T02:08:42;9.80;73.20
68719;DHT22;55696;52.138;5.444;2023-12-14T02:11:11;9.80;73.00
68719;DHT22;55696;52.138;5.444;2023-12-14T02:13:38;9.80;74.20
68719;DHT22;55696;52.138;5.444;2023-12-14T02:16:05;10.00;72.90
68719;DHT22;55696;52.138;5.444;2023-12-14T02:18:32;9.80;73.20
68719;DHT22;55696;52.138;5.444;2023-12-14T02:20:59;9.90;72.80
68719;DHT22;55696;52.138;5.444;2023-12-14T02:23:26;9.90;72.70
68719;DHT22;55696;52.138;5.444;2023-12-14T02:25:52;9.90;72.80
68719;DHT22;55696;52.138;5.444;2023-12-14T02:28:19;9.90;72.70
68719;DHT22;55696;52.138;5.444;2023-12-14T02:30:46;9.90;72.70
68719;DHT22;55696;52.138;5.444;2023-12-14T02:33:13;9.90;72.70
68719;DHT22;55696;52.138;5.444;2023-12-14T02:35:40;9.90;72.70
68719;DHT22;55696;52.138;5.444;2023-12-14T02:38:07;9.80;72.90
68719;DHT22;55696;52.138;5.444;2023-12-14T02:40:34;9.90;72.70
68719;DHT22;55696;52.138;5.444;2023-12-14T02:43:01;9.80;72.80
68719;DHT22;55696;52.138;5.444;2023-12-14T02:45:27;9.80;72.80
68719;DHT22;55696;52.138;5.444;2023-12-14T02:47:54;9.70;72.80
68719;DHT22;55696;52.138;5.444;2023-12-14T02:50:21;9.80;73.00
68719;DHT22;55696;52.138;5.444;2023-12-14T02:52:48;9.80;72.90
68719;DHT22;55696;52.138;5.444;2023-12-14T02:55:15;9.70;72.80
68719;DHT22;55696;52.138;5.444;2023-12-14T02:57:42;9.80;73.00
68719;DHT22;55696;52.138;5.444;2023-12-14T03:00:09;9.70;72.80
68719;DHT22;55696;52.138;5.444;2023-12-14T03:02:37;9.70;73.30
68719;DHT22;55696;52.138;5.444;2023-12-14T03:05:04;9.70;74.10
68719;DHT22;55696;52.138;5.444;2023-12-14T03:07:33;9.70;73.20
68719;DHT22;55696;52.138;5.444;2023-12-14T03:10:00;9.70;73.00
68719;DHT22;55696;52.138;5.444;2023-12-14T03:12:28;9.70;73.10
68719;DHT22;55696;52.138;5.444;2023-12-14T03:14:55;9.70;73.30
68719;DHT22;55696;52.138;5.444;2023-12-14T03:17:22;9.70;73.20
68719;DHT22;55696;52.138;5.444;2023-12-14T03:19:49;9.70;73.10
68719;DHT22;55696;52.138;5.444;2023-12-14T03:22:16;9.60;73.00
68719;DHT22;55696;52.138;5.444;2023-12-14T03:24:42;9.70;73.00
68719;DHT22;55696;52.138;5.444;2023-12-14T03:27:09;9.70;73.30
68719;DHT22;55696;52.138;5.444;2023-12-14T03:29:36;9.70;73.10
68719;DHT22;55696;52.138;5.444;2023-12-14T03:32:03;9.70;73.10
68719;DHT22;55696;52.138;5.444;2023-12-14T03:34:30;9.70;73.40
68719;DHT22;55696;52.138;5.444;2023-12-14T03:36:57;9.60;73.10
68719;DHT22;55696;52.138;5.444;2023-12-14T03:39:24;9.70;73.20
68719;DHT22;55696;52.138;5.444;2023-12-14T03:41:51;9.90;73.40
68719;DHT22;55696;52.138;5.444;2023-12-14T03:44:18;9.60;73.50
68719;DHT22;55696;52.138;5.444;2023-12-14T03:46:44;9.60;73.30
68719;DHT22;55696;52.138;5.444;2023-12-14T03:49:11;9.60;73.40
68719;DHT22;55696;52.138;5.444;2023-12-14T03:51:38;9.70;73.40
68719;DHT22;55696;52.138;5.444;2023-12-14T03:54:05;9.80;74.10
68719;DHT22;55696;52.138;5.444;2023-12-14T03:56:32;9.80;73.10
68719;DHT22;55696;52.138;5.444;2023-12-14T03:58:59;9.90;73.30
68719;DHT22;55696;52.138;5.444;2023-12-14T04:01:26;9.90;73.00
68719;DHT22;55696;52.138;5.444;2023-12-14T04:03:52;9.80;72.80
68719;DHT22;55696;52.138;5.444;2023-12-14T04:06:19;9.80;72.80
68719;DHT22;55696;52.138;5.444;2023-12-14T04:08:46;9.80;72.80
68719;DHT22;55696;52.138;5.444;2023-12-14T04:11:13;9.80;73.10
68719;DHT22;55696;52.138;5.444;2023-12-14T04:13:40;9.70;72.80
68719;DHT22;55696;52.138;5.444;2023-12-14T04:16:07;9.70;72.70
68719;DHT22;55696;52.138;5.444;2023-12-14T04:18:34;9.80;72.90
68719;DHT22;55696;52.138;5.444;2023-12-14T04:21:01;9.70;73.20
68719;DHT22;55696;52.138;5.444;2023-12-14T04:23:28;9.70;72.70
68719;DHT22;55696;52.138;5.444;2023-12-14T04:25:55;9.50;72.50
68719;DHT22;55696;52.138;5.444;2023-12-14T04:28:22;9.60;72.80
68719;DHT22;55696;52.138;5.444;2023-12-14T04:30:49;9.50;72.70
68719;DHT22;55696;52.138;5.444;2023-12-14T04:33:15;9.60;72.70
68719;DHT22;55696;52.138;5.444;2023-12-14T04:35:42;9.40;72.60
68719;DHT22;55696;52.138;5.444;2023-12-14T04:38:09;9.50;72.70
68719;DHT22;55696;52.138;5.444;2023-12-14T04:40:36;9.80;72.80
68719;DHT22;55696;52.138;5.444;2023-12-14T04:43:04;9.50;72.80
68719;DHT22;55696;52.138;5.444;2023-12-14T04:45:31;9.40;72.60
68719;DHT22;55696;52.138;5.444;2023-12-14T04:47:57;9.40;72.50
68719;DHT22;55696;52.138;5.444;2023-12-14T04:50:24;9.50;72.60
68719;DHT22;55696;52.138;5.444;2023-12-14T04:52:51;9.50;72.60
68719;DHT22;55696;52.138;5.444;2023-12-14T04:55:18;9.40;72.50
68719;DHT22;55696;52.138;5.444;2023-12-14T04:57:45;9.50;72.60
68719;DHT22;55696;52.138;5.444;2023-12-14T05:00:13;9.50;72.40
68719;DHT22;55696;52.138;5.444;2023-12-14T05:02:40;9.60;73.30
68719;DHT22;55696;52.138;5.444;2023-12-14T05:05:07;9.60;72.60
68719;DHT22;55696;52.138;5.444;2023-12-14T05:07:34;9.70;72.40
68719;DHT22;55696;52.138;5.444;2023-12-14T05:10:01;9.70;72.10
68719;DHT22;55696;52.138;5.444;2023-12-14T05:12:28;10.00;72.50
68719;DHT22;55696;52.138;5.444;2023-12-14T05:14:56;9.60;72.10
68719;DHT22;55696;52.138;5.444;2023-12-14T05:17:22;9.60;72.30
68719;DHT22;55696;52.138;5.444;2023-12-14T05:19:49;9.60;72.20
68719;DHT22;55696;52.138;5.444;2023-12-14T05:22:16;9.60;72.30
68719;DHT22;55696;52.138;5.444;2023-12-14T05:24:47;9.60;72.50
68719;DHT22;55696;52.138;5.444;2023-12-14T05:27:13;9.60;73.90
68719;DHT22;55696;52.138;5.444;2023-12-14T05:29:41;9.50;72.30
68719;DHT22;55696;52.138;5.444;2023-12-14T05:32:08;9.60;72.40
68719;DHT22;55696;52.138;5.444;2023-12-14T05:34:35;9.50;72.30
68719;DHT22;55696;52.138;5.444;2023-12-14T05:37:02;9.40;72.60
68719;DHT22;55696;52.138;5.444;2023-12-14T05:39:29;9.40;72.90
68719;DHT22;55696;52.138;5.444;2023-12-14T05:41:55;9.30;72.40
68719;DHT22;55696;52.138;5.444;2023-12-14T05:44:22;9.30;72.40
68719;DHT22;55696;52.138;5.444;2023-12-14T05:46:49;9.40;72.40
68719;DHT22;55696;52.138;5.444;2023-12-14T05:49:16;9.40;72.80
68719;DHT22;55696;52.138;5.444;2023-12-14T05:51:43;9.30;72.20
68719;DHT22;55696;52.138;5.444;2023-12-14T05:54:10;9.90;72.60
68719;DHT22;55696;52.138;5.444;2023-12-14T05:56:38;9.30;72.30
68719;DHT22;55696;52.138;5.444;2023-12-14T05:59:06;9.30;72.30
68719;DHT22;55696;52.138;5.444;2023-12-14T06:01:33;9.30;72.20
68719;DHT22;55696;52.138;5.444;2023-12-14T06:04:00;9.40;72.40
68719;DHT22;55696;52.138;5.444;2023-12-14T06:06:27;9.30;72.00
68719;DHT22;55696;52.138;5.444;2023-12-14T06:08:54;9.30;71.90
68719;DHT22;55696;52.138;5.444;2023-12-14T06:11:20;9.10;72.00
68719;DHT22;55696;52.138;5.444;2023-12-14T06:13:47;9.40;73.00
68719;DHT22;55696;52.138;5.444;2023-12-14T06:16:14;9.40;72.30
68719;DHT22;55696;52.138;5.444;2023-12-14T06:18:41;9.40;72.00
68719;DHT22;55696;52.138;5.444;2023-12-14T06:21:11;9.40;72.80
68719;DHT22;55696;52.138;5.444;2023-12-14T06:23:39;9.30;72.90
68719;DHT22;55696;52.138;5.444;2023-12-14T06:26:06;9.30;71.60
68719;DHT22;55696;52.138;5.444;2023-12-14T06:28:33;9.20;71.90
68719;DHT22;55696;52.138;5.444;2023-12-14T06:31:00;9.20;71.80
68719;DHT22;55696;52.138;5.444;2023-12-14T06:33:28;9.30;71.70
68719;DHT22;55696;52.138;5.444;2023-12-14T06:35:55;9.20;71.80
68719;DHT22;55696;52.138;5.444;2023-12-14T06:38:22;9.20;71.50
68719;DHT22;55696;52.138;5.444;2023-12-14T06:40:50;9.20;71.40
68719;DHT22;55696;52.138;5.444;2023-12-14T06:43:16;9.30;71.20
68719;DHT22;55696;52.138;5.444;2023-12-14T06:45:43;9.30;71.20
68719;DHT22;55696;52.138;5.444;2023-12-14T06:48:10;9.30;71.10
68719;DHT22;55696;52.138;5.444;2023-12-14T06:50:37;9.40;71.20
68719;DHT22;55696;52.138;5.444;2023-12-14T06:53:04;9.30;70.70
68719;DHT22;55696;52.138;5.444;2023-12-14T06:55:31;9.20;70.60
68719;DHT22;55696;52.138;5.444;2023-12-14T06:57:58;9.20;70.80
68719;DHT22;55696;52.138;5.444;2023-12-14T07:00:25;9.10;70.40
68719;DHT22;55696;52.138;5.444;2023-12-14T07:02:51;9.00;70.40
68719;DHT22;55696;52.138;5.444;2023-12-14T07:05:18;9.00;70.70
68719;DHT22;55696;52.138;5.444;2023-12-14T07:07:45;9.00;70.70
68719;DHT22;55696;52.138;5.444;2023-12-14T07:10:12;9.00;71.00
68719;DHT22;55696;52.138;5.444;2023-12-14T07:12:39;9.00;71.80
68719;DHT22;55696;52.138;5.444;2023-12-14T07:15:06;8.90;71.30
68719;DHT22;55696;52.138;5.444;2023-12-14T07:17:33;9.00;71.40
68719;DHT22;55696;52.138;5.444;2023-12-14T07:20:00;9.00;71.00
68719;DHT22;55696;52.138;5.444;2023-12-14T07:22:27;9.00;70.90
68719;DHT22;55696;52.138;5.444;2023-12-14T07:24:54;9.10;70.70
68719;DHT22;55696;52.138;5.444;2023-12-14T07:27:26;9.10;70.80
68719;DHT22;55696;52.138;5.444;2023-12-14T07:29:53;9.20;70.60
68719;DHT22;55696;52.138;5.444;2023-12-14T07:32:19;9.20;69.80
68719;DHT22;55696;52.138;5.444;2023-12-14T07:34:46;10.00;70.00
68719;DHT22;55696;52.138;5.444;2023-12-14T07:37:13;9.10;69.70
68719;DHT22;55696;52.138;5.444;2023-12-14T07:39:40;9.10;70.10
68719;DHT22;55696;52.138;5.444;2023-12-14T07:42:07;9.10;69.80
68719;DHT22;55696;52.138;5.444;2023-12-14T07:44:34;9.10;70.00
68719;DHT22;55696;52.138;5.444;2023-12-14T07:47:02;9.10;70.10
68719;DHT22;55696;52.138;5.444;2023-12-14T07:49:29;9.00;70.40
68719;DHT22;55696;52.138;5.444;2023-12-14T07:51:56;9.00;70.30
68719;DHT22;55696;52.138;5.444;2023-12-14T07:54:23;8.90;70.00
68719;DHT22;55696;52.138;5.444;2023-12-14T07:56:52;8.90;70.20
68719;DHT22;55696;52.138;5.444;2023-12-14T07:59:19;9.00;70.20
68719;DHT22;55696;52.138;5.444;2023-12-14T08:01:46;9.10;70.20
68719;DHT22;55696;52.138;5.444;2023-12-14T08:04:14;9.10;70.40
68719;DHT22;55696;52.138;5.444;2023-12-14T08:06:41;9.10;70.90
68719;DHT22;55696;52.138;5.444;2023-12-14T08:09:09;9.20;69.80
68719;DHT22;55696;52.138;5.444;2023-12-14T08:11:36;9.20;70.50
68719;DHT22;55696;52.138;5.444;2023-12-14T08:14:03;9.20;69.80
68719;DHT22;55696;52.138;5.444;2023-12-14T08:16:30;9.20;69.90
68719;DHT22;55696;52.138;5.444;2023-12-14T08:18:57;9.10;70.00
68719;DHT22;55696;52.138;5.444;2023-12-14T08:21:24;9.10;69.70
68719;DHT22;55696;52.138;5.444;2023-12-14T08:23:51;9.20;69.60
68719;DHT22;55696;52.138;5.444;2023-12-14T08:26:18;9.10;69.40
68719;DHT22;55696;52.138;5.444;2023-12-14T08:28:44;10.00;70.10
68719;DHT22;55696;52.138;5.444;2023-12-14T08:31:11;9.20;69.60
68719;DHT22;55696;52.138;5.444;2023-12-14T08:33:41;9.20;70.80
68719;DHT22;55696;52.138;5.444;2023-12-14T08:36:15;9.30;71.30
68719;DHT22;55696;52.138;5.444;2023-12-14T08:38:42;9.40;71.40
68719;DHT22;55696;52.138;5.444;2023-12-14T08:41:13;9.50;69.90
68719;DHT22;55696;52.138;5.444;2023-12-14T08:43:41;9.50;71.20
68719;DHT22;55696;52.138;5.444;2023-12-14T08:46:08;9.50;69.30
68719;DHT22;55696;52.138;5.444;2023-12-14T08:48:36;9.50;69.30
68719;DHT22;55696;52.138;5.444;2023-12-14T08:51:04;9.50;69.50
68719;DHT22;55696;52.138;5.444;2023-12-14T08:53:31;9.90;69.70
68719;DHT22;55696;52.138;5.444;2023-12-14T08:55:58;9.50;69.20
68719;DHT22;55696;52.138;5.444;2023-12-14T08:58:25;9.50;69.10
68719;DHT22;55696;52.138;5.444;2023-12-14T09:00:52;10.50;69.80
68719;DHT22;55696;52.138;5.444;2023-12-14T09:03:19;9.60;68.90
68719;DHT22;55696;52.138;5.444;2023-12-14T09:05:47;9.60;68.70
68719;DHT22;55696;52.138;5.444;2023-12-14T09:08:14;9.60;69.00
68719;DHT22;55696;52.138;5.444;2023-12-14T09:10:41;9.70;68.80
68719;DHT22;55696;52.138;5.444;2023-12-14T09:13:08;9.70;68.60
68719;DHT22;55696;52.138;5.444;2023-12-14T09:15:35;9.60;68.80
68719;DHT22;55696;52.138;5.444;2023-12-14T09:18:02;9.60;68.60
68719;DHT22;55696;52.138;5.444;2023-12-14T09:20:29;9.60;68.60
68719;DHT22;55696;52.138;5.444;2023-12-14T09:22:56;9.60;68.60
68719;DHT22;55696;52.138;5.444;2023-12-14T09:25:23;9.70;68.50
68719;DHT22;55696;52.138;5.444;2023-12-14T09:27:50;9.70;68.70
68719;DHT22;55696;52.138;5.444;2023-12-14T09:30:17;9.80;68.70
68719;DHT22;55696;52.138;5.444;2023-12-14T09:32:44;9.70;68.70
68719;DHT22;55696;52.138;5.444;2023-12-14T09:35:11;9.70;68.60
68719;DHT22;55696;52.138;5.444;2023-12-14T09:37:38;9.70;68.60
68719;DHT22;55696;52.138;5.444;2023-12-14T09:40:06;9.70;68.40
68719;DHT22;55696;52.138;5.444;2023-12-14T09:42:38;9.70;69.00
68719;DHT22;55696;52.138;5.444;2023-12-14T09:45:07;9.80;70.60
68719;DHT22;55696;52.138;5.444;2023-12-14T09:47:38;9.90;69.90
68719;DHT22;55696;52.138;5.444;2023-12-14T09:50:06;9.80;70.30
68719;DHT22;55696;52.138;5.444;2023-12-14T09:52:34;10.00;68.60
68719;DHT22;55696;52.138;5.444;2023-12-14T09:55:00;10.10;69.10
68719;DHT22;55696;52.138;5.444;2023-12-14T09:57:30;10.10;68.10
68719;DHT22;55696;52.138;5.444;2023-12-14T09:59:58;10.20;67.90
68719;DHT22;55696;52.138;5.444;2023-12-14T10:02:26;10.10;67.90
68719;DHT22;55696;52.138;5.444;2023-12-14T10:04:54;10.10;68.60
68719;DHT22;55696;52.138;5.444;2023-12-14T10:07:22;10.20;68.00
68719;DHT22;55696;52.138;5.444;2023-12-14T10:09:49;10.20;68.50
68719;DHT22;55696;52.138;5.444;2023-12-14T10:12:16;10.10;67.70
68719;DHT22;55696;52.138;5.444;2023-12-14T10:14:44;10.10;67.60
68719;DHT22;55696;52.138;5.444;2023-12-14T10:17:20;10.10;67.80
68719;DHT22;55696;52.138;5.444;2023-12-14T10:19:48;10.10;69.10
68719;DHT22;55696;52.138;5.444;2023-12-14T10:22:17;10.10;68.30
68719;DHT22;55696;52.138;5.444;2023-12-14T10:24:46;10.10;68.80
68719;DHT22;55696;52.138;5.444;2023-12-14T10:27:16;10.20;68.60
68719;DHT22;55696;52.138;5.444;2023-12-14T10:29:44;10.30;69.70
68719;DHT22;55696;52.138;5.444;2023-12-14T10:32:12;10.30;68.30
68719;DHT22;55696;52.138;5.444;2023-12-14T10:34:40;10.50;67.80
68719;DHT22;55696;52.138;5.444;2023-12-14T10:37:09;10.50;67.50
68719;DHT22;55696;52.138;5.444;2023-12-14T10:39:37;10.60;67.90
68719;DHT22;55696;52.138;5.444;2023-12-14T10:42:09;10.70;67.50
68719;DHT22;55696;52.138;5.444;2023-12-14T10:44:45;10.70;67.40
68719;DHT22;55696;52.138;5.444;2023-12-14T10:47:34;10.80;66.10
68719;DHT22;55696;52.138;5.444;2023-12-14T10:50:02;11.70;66.40
68719;DHT22;55696;52.138;5.444;2023-12-14T10:52:30;10.90;66.50
68719;DHT22;55696;52.138;5.444;2023-12-14T10:55:04;10.90;66.20
68719;DHT22;55696;52.138;5.444;2023-12-14T10:57:31;11.00;67.50
68719;DHT22;55696;52.138;5.444;2023-12-14T11:00:02;10.90;65.70
68719;DHT22;55696;52.138;5.444;2023-12-14T11:02:30;10.90;67.00
68719;DHT22;55696;52.138;5.444;2023-12-14T11:05:03;10.90;66.60
68719;DHT22;55696;52.138;5.444;2023-12-14T11:07:53;10.90;65.60
68719;DHT22;55696;52.138;5.444;2023-12-14T11:10:26;10.80;67.10
68719;DHT22;55696;52.138;5.444;2023-12-14T11:13:00;10.70;66.00
68719;DHT22;55696;52.138;5.444;2023-12-14T11:15:33;10.70;67.60
68719;DHT22;55696;52.138;5.444;2023-12-14T11:21:00;10.60;67.80
68719;DHT22;55696;52.138;5.444;2023-12-14T11:23:32;10.50;67.50
68719;DHT22;55696;52.138;5.444;2023-12-14T11:26:09;10.60;66.40
68719;DHT22;55696;52.138;5.444;2023-12-14T11:28:40;10.60;67.70
68719;DHT22;55696;52.138;5.444;2023-12-14T11:31:11;10.60;67.40
68719;DHT22;55696;52.138;5.444;2023-12-14T11:33:38;10.70;66.00
68719;DHT22;55696;52.138;5.444;2023-12-14T11:36:11;10.80;64.90
68719;DHT22;55696;52.138;5.444;2023-12-14T11:38:38;10.80;65.90
68719;DHT22;55696;52.138;5.444;2023-12-14T11:41:05;10.80;64.50
68719;DHT22;55696;52.138;5.444;2023-12-14T11:43:42;10.90;64.50
68719;DHT22;55696;52.138;5.444;2023-12-14T11:46:11;10.90;66.70
68719;DHT22;55696;52.138;5.444;2023-12-14T11:48:38;11.10;65.40
68719;DHT22;55696;52.138;5.444;2023-12-14T11:51:05;11.10;64.40
68719;DHT22;55696;52.138;5.444;2023-12-14T11:53:32;11.30;64.70
68719;DHT22;55696;52.138;5.444;2023-12-14T11:56:01;11.40;64.20
68719;DHT22;55696;52.138;5.444;2023-12-14T11:58:31;11.50;65.30
68719;DHT22;55696;52.138;5.444;2023-12-14T12:01:19;11.40;65.50
68719;DHT22;55696;52.138;5.444;2023-12-14T12:03:51;11.50;66.20
68719;DHT22;55696;52.138;5.444;2023-12-14T12:06:23;11.50;64.00
68719;DHT22;55696;52.138;5.444;2023-12-14T12:08:51;11.50;65.40
68719;DHT22;55696;52.138;5.444;2023-12-14T12:11:19;11.60;64.10
68719;DHT22;55696;52.138;5.444;2023-12-14T12:13:54;11.60;64.10
68719;DHT22;55696;52.138;5.444;2023-12-14T12:16:22;11.50;65.00
68719;DHT22;55696;52.138;5.444;2023-12-14T12:18:51;11.50;63.50
68719;DHT22;55696;52.138;5.444;2023-12-14T12:21:18;11.60;63.60
68719;DHT22;55696;52.138;5.444;2023-12-14T12:23:45;11.60;63.30
68719;DHT22;55696;52.138;5.444;2023-12-14T12:26:12;11.50;63.80
68719;DHT22;55696;52.138;5.444;2023-12-14T12:28:39;11.50;63.60
68719;DHT22;55696;52.138;5.444;2023-12-14T12:31:06;11.60;63.40
68719;DHT22;55696;52.138;5.444;2023-12-14T12:33:33;11.60;63.20
68719;DHT22;55696;52.138;5.444;2023-12-14T12:36:05;11.70;62.90
68719;DHT22;55696;52.138;5.444;2023-12-14T12:38:32;11.70;63.20
68719;DHT22;55696;52.138;5.444;2023-12-14T12:41:00;11.60;62.70
68719;DHT22;55696;52.138;5.444;2023-12-14T12:43:27;11.70;62.70
68719;DHT22;55696;52.138;5.444;2023-12-14T12:45:54;11.60;62.60
68719;DHT22;55696;52.138;5.444;2023-12-14T12:48:21;11.60;62.70
68719;DHT22;55696;52.138;5.444;2023-12-14T12:50:53;11.40;62.40
68719;DHT22;55696;52.138;5.444;2023-12-14T12:53:19;11.50;62.60
68719;DHT22;55696;52.138;5.444;2023-12-14T12:55:46;11.40;62.70
68719;DHT22;55696;52.138;5.444;2023-12-14T12:58:13;11.40;63.00
68719;DHT22;55696;52.138;5.444;2023-12-14T13:00:41;11.40;62.90
68719;DHT22;55696;52.138;5.444;2023-12-14T13:03:08;11.50;62.90
68719;DHT22;55696;52.138;5.444;2023-12-14T13:05:36;11.50;62.80
68719;DHT22;55696;52.138;5.444;2023-12-14T13:08:03;11.40;62.70
68719;DHT22;55696;52.138;5.444;2023-12-14T13:10:30;11.60;62.70
68719;DHT22;55696;52.138;5.444;2023-12-14T13:12:59;11.40;62.60
68719;DHT22;55696;52.138;5.444;2023-12-14T13:15:27;11.40;62.80
68719;DHT22;55696;52.138;5.444;2023-12-14T13:17:56;11.40;63.80
68719;DHT22;55696;52.138;5.444;2023-12-14T13:20:23;11.30;62.80
68719;DHT22;55696;52.138;5.444;2023-12-14T13:22:50;11.50;62.90
68719;DHT22;55696;52.138;5.444;2023-12-14T13:25:18;11.50;62.90
68719;DHT22;55696;52.138;5.444;2023-12-14T13:27:44;11.60;62.80
68719;DHT22;55696;52.138;5.444;2023-12-14T13:30:11;11.60;62.80
68719;DHT22;55696;52.138;5.444;2023-12-14T13:32:43;11.70;63.00
68719;DHT22;55696;52.138;5.444;2023-12-14T13:35:10;11.60;62.70
68719;DHT22;55696;52.138;5.444;2023-12-14T13:37:37;11.70;62.80
68719;DHT22;55696;52.138;5.444;2023-12-14T13:40:05;11.60;62.60
68719;DHT22;55696;52.138;5.444;2023-12-14T13:42:32;11.80;63.00
68719;DHT22;55696;52.138;5.444;2023-12-14T13:44:59;11.90;62.80
68719;DHT22;55696;52.138;5.444;2023-12-14T13:47:27;11.80;62.50
68719;DHT22;55696;52.138;5.444;2023-12-14T13:49:54;11.80;64.00
68719;DHT22;55696;52.138;5.444;2023-12-14T13:52:21;11.90;62.70
68719;DHT22;55696;52.138;5.444;2023-12-14T13:54:48;11.90;62.60
68719;DHT22;55696;52.138;5.444;2023-12-14T13:57:14;11.90;62.80
68719;DHT22;55696;52.138;5.444;2023-12-14T13:59:41;11.80;62.80
68719;DHT22;55696;52.138;5.444;2023-12-14T14:02:08;12.50;63.40
68719;DHT22;55696;52.138;5.444;2023-12-14T14:04:35;11.80;63.00
68719;DHT22;55696;52.138;5.444;2023-12-14T14:07:02;11.90;62.90
68719;DHT22;55696;52.138;5.444;2023-12-14T14:09:29;11.90;62.80
68719;DHT22;55696;52.138;5.444;2023-12-14T14:11:56;11.90;62.80
68719;DHT22;55696;52.138;5.444;2023-12-14T14:14:23;11.90;62.80
68719;DHT22;55696;52.138;5.444;2023-12-14T14:16:50;11.90;62.80
68719;DHT22;55696;52.138;5.444;2023-12-14T14:19:17;11.80;62.70
68719;DHT22;55696;52.138;5.444;2023-12-14T14:21:44;11.80;62.80
68719;DHT22;55696;52.138;5.444;2023-12-14T14:24:11;11.70;63.10
68719;DHT22;55696;52.138;5.444;2023-12-14T14:26:37;11.70;63.10
68719;DHT22;55696;52.138;5.444;2023-12-14T14:29:04;11.70;63.00
68719;DHT22;55696;52.138;5.444;2023-12-14T14:31:31;11.80;63.20
68719;DHT22;55696;52.138;5.444;2023-12-14T14:34:00;11.70;63.20
68719;DHT22;55696;52.138;5.444;2023-12-14T14:36:27;11.70;63.70
68719;DHT22;55696;52.138;5.444;2023-12-14T14:38:54;11.80;64.10
68719;DHT22;55696;52.138;5.444;2023-12-14T14:41:24;11.60;63.70
68719;DHT22;55696;52.138;5.444;2023-12-14T14:43:51;11.60;64.50
68719;DHT22;55696;52.138;5.444;2023-12-14T14:46:19;11.50;63.60
68719;DHT22;55696;52.138;5.444;2023-12-14T14:48:45;11.40;63.70
68719;DHT22;55696;52.138;5.444;2023-12-14T14:51:13;11.50;63.80
68719;DHT22;55696;52.138;5.444;2023-12-14T14:53:40;11.50;63.70
68719;DHT22;55696;52.138;5.444;2023-12-14T14:56:10;11.40;63.60
68719;DHT22;55696;52.138;5.444;2023-12-14T14:58:37;11.30;64.40
68719;DHT22;55696;52.138;5.444;2023-12-14T15:01:05;11.40;64.00
68719;DHT22;55696;52.138;5.444;2023-12-14T15:03:32;11.40;64.30
68719;DHT22;55696;52.138;5.444;2023-12-14T15:05:59;11.20;64.00
68719;DHT22;55696;52.138;5.444;2023-12-14T15:08:26;11.30;64.20
68719;DHT22;55696;52.138;5.444;2023-12-14T15:10:53;11.20;64.40
68719;DHT22;55696;52.138;5.444;2023-12-14T15:13:22;11.60;64.70
68719;DHT22;55696;52.138;5.444;2023-12-14T15:15:49;11.20;64.50
68719;DHT22;55696;52.138;5.444;2023-12-14T15:18:16;11.20;64.60
68719;DHT22;55696;52.138;5.444;2023-12-14T15:20:43;11.10;64.60
68719;DHT22;55696;52.138;5.444;2023-12-14T15:23:09;11.00;64.70
68719;DHT22;55696;52.138;5.444;2023-12-14T15:25:36;10.70;64.80
68719;DHT22;55696;52.138;5.444;2023-12-14T15:28:03;11.00;65.10
68719;DHT22;55696;52.138;5.444;2023-12-14T15:30:30;11.00;65.20
68719;DHT22;55696;52.138;5.444;2023-12-14T15:32:57;10.90;65.30
68719;DHT22;55696;52.138;5.444;2023-12-14T15:35:24;11.00;65.90
68719;DHT22;55696;52.138;5.444;2023-12-14T15:37:52;11.00;65.50
68719;DHT22;55696;52.138;5.444;2023-12-14T15:40:18;11.00;65.60
68719;DHT22;55696;52.138;5.444;2023-12-14T15:42:46;11.00;65.50
68719;DHT22;55696;52.138;5.444;2023-12-14T15:45:18;11.10;66.10